Portada
METAR-TAF:

METAR-TAF

Aeroports :

Aeroport de Can Tho

Cần Thơ, Vietnam

latitud: 10-05-07N, longitud: 105-42-43E, altitud: 3 m

Observació

L'informe es va fer fa 34 minuts, a les 05:30 UTC
Vent 5 kt del Nord-Est
Temperatura 30°C
Humitat 75%
Pressió 1010 hPa
Visibilitat 10 km o més
Núvols disperses a una alçada de 1300 ft
Cel ennuvolat a una alçada de 5000 ft

METAR: VVCT 260530Z 04005KT 9999 SCT013 BKN050 30/25 Q1010 NOSIG

Hora: 13:04 (06:04 UTC)

Pronòstic

L'informe es va fer fa 1 hora i 4 minuts, a les 05:00 UTC
Pronòstic vàlid del 26 a les 06 UTC al 27 a les 06 UTC
Vent 6 kt del Nord
Visibilitat 10 km o més
Escasses núvols a una alçada de 1300 ft
Cel ennuvolat a una alçada de 4000 ft

TAF: VVCT 260500Z 2606/2706 01006KT 9999 FEW013 BKN040

Observacions i pronòstics meteorològics de més de 4000 aeroports (METAR i TAF).

Les estacions disponibles són els punts grocs i vermells al mapa.

Posi el ratolí al punt desitjat per veure el nom de l'estació.

Feu clic per veure les observacions i els pronòstics meteorològics.

Per canviar el mapa: feu clic els botons verds amb una creu de color negre per apropar; al botó verd amb un guió per allunyar la imatge; o en les fletxes verdes per a mapes adjacents.


METAR-TAF: